Terminal Aerodrome Forecast
Issued by NWS

Home | Current Version | Previous Version | Text Only | Print | Product List | Glossary On
Versions: 1 2 3 4 5 6 7 8 9 10 11 12 13 14 15 16 17 18 19 20 21 22
000
FTUS46 KLOX 281311 AAA
TAFSBP
TAF AMD
KSBP 281311Z 2813/2912 VRB03KT 2SM BR OVC004
     FM281500 VRB03KT 6SM BR OVC007
     FM281800 30008KT P6SM SCT150
     FM290300 VRB03KT P6SM SCT150
     FM290600 VRB03KT P6SM BKN007=

USA.gov is the U.S. government's official web portal to all federal, state and local government web resources and services.